createdAt,value
2022-09-26T00:01:33.122Z,100343.41
2022-09-26T00:04:02.822Z,100343.44
2022-09-26T00:06:29.786Z,100330.97
2022-09-26T00:08:56.708Z,100327.06
2022-09-26T00:11:27.953Z,100324.59
2022-09-26T00:13:58.012Z,100318.88
2022-09-26T00:16:25.121Z,100312.94
2022-09-26T00:18:54.587Z,100306.63
2022-09-26T00:21:21.900Z,100293.50
2022-09-26T00:23:48.749Z,100295.59
2022-09-26T00:26:16.878Z,100287.19
2022-09-26T00:28:43.485Z,100284.94
2022-09-26T00:31:13.333Z,100275.75
2022-09-26T00:33:39.933Z,100275.94
2022-09-26T00:36:06.972Z,100278.03
2022-09-26T00:38:33.763Z,100276.78
2022-09-26T00:41:00.330Z,100254.69
2022-09-26T00:43:30.840Z,100257.13
2022-09-26T00:46:06.032Z,100252.63
2022-09-26T00:48:34.646Z,100246.88
2022-09-26T00:51:01.646Z,100244.84
2022-09-26T00:53:35.133Z,100238.09
2022-09-26T00:56:06.283Z,100228.47
2022-09-26T00:58:38.313Z,100216.19
2022-09-26T01:01:05.053Z,100222.94
2022-09-26T01:03:31.993Z,100232.13
2022-09-26T01:05:59.308Z,100228.63
2022-09-26T01:08:32.062Z,100233.78
2022-09-26T01:10:59.280Z,100235.00
2022-09-26T01:13:26.882Z,100231.72
2022-09-26T01:15:53.363Z,100228.44
2022-09-26T01:18:20.057Z,100219.00
2022-09-26T01:21:08.092Z,100216.34
2022-09-26T01:23:49.283Z,100211.63
2022-09-26T01:26:39.744Z,100208.78
2022-09-26T01:29:45.873Z,100208.59
2022-09-26T01:32:48.803Z,100200.00
2022-09-26T01:35:42.521Z,100190.78
2022-09-26T01:38:33.041Z,100186.13
2022-09-26T01:41:03.932Z,100180.97
2022-09-26T01:43:57.847Z,100175.06
2022-09-26T01:46:57.664Z,100164.00
2022-09-26T01:49:28.666Z,100167.06
2022-09-26T01:52:20.924Z,100157.25
2022-09-26T01:54:58.520Z,100164.03
2022-09-26T01:57:31.275Z,100157.88
2022-09-26T02:00:01.246Z,100158.28
2022-09-26T02:02:31.545Z,100149.28
2022-09-26T02:05:03.991Z,100142.94
2022-09-26T02:07:41.766Z,100137.44
2022-09-26T02:10:13.197Z,100142.13
2022-09-26T02:12:41.737Z,100137.38
2022-09-26T02:15:11.830Z,100129.44
2022-09-26T02:17:48.764Z,100115.50
2022-09-26T02:20:30.479Z,100112.84
2022-09-26T02:22:58.693Z,100107.94
2022-09-26T02:25:25.872Z,100101.59
2022-09-26T02:27:52.600Z,100103.25
2022-09-26T02:30:19.057Z,100093.22
2022-09-26T02:32:45.529Z,100093.81
2022-09-26T02:35:34.799Z,100088.50
2022-09-26T02:38:01.774Z,100097.53
2022-09-26T02:40:38.173Z,100104.03
2022-09-26T02:43:47.132Z,100092.38
2022-09-26T02:46:13.731Z,100086.47
2022-09-26T02:49:17.789Z,100071.31
2022-09-26T02:52:21.850Z,100062.94
2022-09-26T02:55:24.588Z,100053.72
2022-09-26T02:58:06.189Z,100048.75
2022-09-26T03:00:43.305Z,100048.56
2022-09-26T03:03:19.821Z,100040.34
2022-09-26T03:05:48.316Z,100034.66
2022-09-26T03:08:18.624Z,100026.66
2022-09-26T03:10:46.724Z,100010.91
2022-09-26T03:13:14.960Z,100007.44
2022-09-26T03:15:45.153Z,100003.72
2022-09-26T03:18:17.347Z,99996.38
2022-09-26T03:20:44.553Z,99985.34
2022-09-26T03:23:11.009Z,99979.00
2022-09-26T03:25:38.115Z,99981.03
2022-09-26T03:28:04.587Z,99964.47
2022-09-26T03:30:31.093Z,99962.03
2022-09-26T03:32:57.712Z,99964.09
2022-09-26T03:35:24.535Z,99957.13
2022-09-26T03:37:51.075Z,99958.34
2022-09-26T03:40:17.675Z,99952.00
2022-09-26T03:42:46.284Z,99953.88
2022-09-26T03:45:12.854Z,99943.81
2022-09-26T03:47:39.374Z,99930.16
2022-09-26T03:50:06.526Z,99931.56
2022-09-26T03:52:32.982Z,99928.91
2022-09-26T03:54:59.452Z,99918.81
2022-09-26T03:57:25.956Z,99928.44
2022-09-26T03:59:52.429Z,99919.81
2022-09-26T04:02:19.818Z,99908.50
2022-09-26T04:04:46.498Z,99907.06
2022-09-26T04:07:12.965Z,99903.16
2022-09-26T04:09:39.704Z,99888.00
2022-09-26T04:12:06.250Z,99897.97
2022-09-26T04:14:32.710Z,99887.09
2022-09-26T04:17:00.290Z,99878.47
2022-09-26T04:19:28.276Z,99873.97
2022-09-26T04:21:54.740Z,99878.25
2022-09-26T04:24:21.414Z,99873.75
2022-09-26T04:26:47.917Z,99878.25
2022-09-26T04:29:15.020Z,99870.47
2022-09-26T04:31:42.132Z,99868.41
2022-09-26T04:34:09.491Z,99862.69
2022-09-26T04:36:35.966Z,99854.69
2022-09-26T04:39:02.555Z,99846.53
2022-09-26T04:41:29.733Z,99842.84
2022-09-26T04:43:57.980Z,99843.44
2022-09-26T04:46:30.631Z,99841.81
2022-09-26T04:48:59.068Z,99842.03
2022-09-26T04:51:26.257Z,99838.53
2022-09-26T04:53:52.718Z,99834.88
2022-09-26T04:56:20.645Z,99832.19
2022-09-26T04:58:47.386Z,99833.22
2022-09-26T05:01:16.365Z,99829.16
2022-09-26T05:03:43.170Z,99832.25
2022-09-26T05:06:10.589Z,99821.41
2022-09-26T05:08:38.532Z,99823.03
2022-09-26T05:11:05.549Z,99814.88
2022-09-26T05:13:32.049Z,99813.09
2022-09-26T05:15:59.879Z,99803.28
2022-09-26T05:18:26.748Z,99807.19
2022-09-26T05:20:54.063Z,99807.19
2022-09-26T05:23:44.597Z,99797.56
2022-09-26T05:26:27.894Z,99798.81
2022-09-26T05:28:56.080Z,99797.19
2022-09-26T05:31:25.296Z,99794.53
2022-09-26T05:33:51.838Z,99782.25
2022-09-26T05:36:21.957Z,99788.47
2022-09-26T05:38:48.857Z,99786.47
2022-09-26T05:41:15.302Z,99786.22
2022-09-26T05:43:42.229Z,99784.81
2022-09-26T05:46:10.590Z,99785.41
2022-09-26T05:48:38.451Z,99770.69
2022-09-26T05:51:13.245Z,99771.75
2022-09-26T05:53:41.448Z,99772.16
2022-09-26T05:56:08.928Z,99772.41
2022-09-26T05:58:37.056Z,99772.41
2022-09-26T06:01:11.541Z,99769.34
2022-09-26T06:03:38.602Z,99761.59
2022-09-26T06:06:07.642Z,99758.50
2022-09-26T06:08:35.379Z,99759.16
2022-09-26T06:11:04.064Z,99755.91
2022-09-26T06:13:31.042Z,99751.63
2022-09-26T06:16:01.604Z,99758.56
2022-09-26T06:18:28.114Z,99746.94
2022-09-26T06:20:54.565Z,99752.28
2022-09-26T06:23:21.032Z,99749.81
2022-09-26T06:25:47.485Z,99752.31
2022-09-26T06:28:13.993Z,99744.53
2022-09-26T06:30:40.462Z,99743.91
2022-09-26T06:33:06.912Z,99739.19
2022-09-26T06:35:33.389Z,99736.97
2022-09-26T06:37:59.923Z,99736.97
2022-09-26T06:40:26.461Z,99729.00
2022-09-26T06:42:55.671Z,99727.13
2022-09-26T06:45:22.198Z,99725.69
2022-09-26T06:47:48.749Z,99715.03
2022-09-26T06:50:16.387Z,99721.16
2022-09-26T06:52:44.005Z,99720.50
2022-09-26T06:55:11.101Z,99724.44
2022-09-26T06:57:40.260Z,99720.06
2022-09-26T07:00:11.638Z,99720.66
2022-09-26T07:02:38.149Z,99718.59
2022-09-26T07:05:05.459Z,99708.31
2022-09-26T07:07:32.798Z,99711.22
2022-09-26T07:09:59.261Z,99710.41
2022-09-26T07:12:26.000Z,99711.00
2022-09-26T07:14:53.846Z,99701.00
2022-09-26T07:17:21.107Z,99688.75
2022-09-26T07:19:51.872Z,99697.13
2022-09-26T07:22:18.600Z,99695.69
2022-09-26T07:24:46.490Z,99698.59
2022-09-26T07:27:12.985Z,99696.72
2022-09-26T07:29:39.462Z,99686.69
2022-09-26T07:32:05.954Z,99698.34
2022-09-26T07:34:32.472Z,99690.81
2022-09-26T07:37:00.227Z,99691.25
2022-09-26T07:39:26.720Z,99680.63
2022-09-26T07:41:53.465Z,99679.16
2022-09-26T07:45:09.274Z,99686.53
2022-09-26T07:47:25.012Z,99679.72
2022-09-26T07:50:10.015Z,99677.31
2022-09-26T07:52:37.184Z,99683.22
2022-09-26T07:55:04.446Z,99681.59
2022-09-26T07:57:35.418Z,99671.53
2022-09-26T08:00:04.774Z,99683.81
2022-09-26T08:02:35.565Z,99686.25
2022-09-26T08:05:05.978Z,99673.19
2022-09-26T08:07:33.354Z,99683.66
2022-09-26T08:10:01.796Z,99678.13
2022-09-26T08:12:28.829Z,99685.28
2022-09-26T08:14:55.851Z,99673.25
2022-09-26T08:17:22.414Z,99672.66
2022-09-26T08:19:49.245Z,99665.25
2022-09-26T08:22:15.705Z,99660.16
2022-09-26T08:24:49.605Z,99663.13
2022-09-26T08:27:16.207Z,99661.25
2022-09-26T08:29:42.889Z,99663.91
2022-09-26T08:32:09.340Z,99654.97
2022-09-26T08:34:36.420Z,99658.63
2022-09-26T08:37:02.958Z,99660.94
2022-09-26T08:39:33.300Z,99659.28
2022-09-26T08:42:09.497Z,99657.28
2022-09-26T08:44:42.086Z,99656.25
2022-09-26T08:47:33.971Z,99650.72
2022-09-26T08:50:09.906Z,99660.31
2022-09-26T08:52:39.157Z,99652.78
2022-09-26T08:55:18.653Z,99657.06
2022-09-26T08:57:49.275Z,99646.00
2022-09-26T09:00:19.380Z,99647.19
2022-09-26T09:02:58.175Z,99641.84
2022-09-26T09:05:27.633Z,99640.72
2022-09-26T09:07:56.896Z,99638.81
2022-09-26T09:10:37.656Z,99638.81
2022-09-26T09:13:29.171Z,99639.63
2022-09-26T09:16:51.337Z,99641.16
2022-09-26T09:19:29.979Z,99633.44
2022-09-26T09:22:14.431Z,99632.16
2022-09-26T09:24:47.068Z,99627.00
2022-09-26T09:28:01.303Z,99619.38
2022-09-26T09:30:37.360Z,99618.50
2022-09-26T09:33:15.786Z,99620.94
2022-09-26T09:35:55.639Z,99605.53
2022-09-26T09:38:31.922Z,99616.63
2022-09-26T09:41:03.410Z,99612.94
2022-09-26T09:43:48.782Z,99606.72
2022-09-26T09:46:19.879Z,99603.25
2022-09-26T09:48:47.898Z,99607.91
2022-09-26T09:51:47.910Z,99596.88
2022-09-26T09:54:17.515Z,99589.28
2022-09-26T09:57:08.962Z,99591.44
2022-09-26T09:59:47.595Z,99587.59
2022-09-26T10:02:31.926Z,99585.53
2022-09-26T10:04:58.317Z,99578.25
2022-09-26T10:07:26.619Z,99581.13
2022-09-26T10:09:54.027Z,99569.69
2022-09-26T10:12:23.676Z,99572.47
2022-09-26T10:14:55.195Z,99572.47
2022-09-26T10:17:22.945Z,99565.53
2022-09-26T10:19:49.895Z,99561.28
2022-09-26T10:22:29.163Z,99558.25
2022-09-26T10:25:22.995Z,99551.88
2022-09-26T10:27:53.418Z,99555.22
2022-09-26T10:30:20.015Z,99553.63
2022-09-26T10:32:49.842Z,99552.34
2022-09-26T10:35:25.247Z,99545.41
2022-09-26T10:38:03.509Z,99554.78
2022-09-26T10:40:46.553Z,99546.34
2022-09-26T10:43:37.779Z,99547.03
2022-09-26T10:46:13.185Z,99541.22
2022-09-26T10:48:52.122Z,99546.44
2022-09-26T10:51:39.408Z,99541.31
2022-09-26T10:54:10.282Z,99544.59
2022-09-26T10:56:48.160Z,99540.34
2022-09-26T10:59:16.605Z,99534.53
2022-09-26T11:01:46.285Z,99523.88
2022-09-26T11:04:40.956Z,99527.25
2022-09-26T11:07:09.904Z,99531.53
2022-09-26T11:09:38.282Z,99526.38
2022-09-26T11:12:25.513Z,99526.47
2022-09-26T11:15:00.008Z,99531.91
2022-09-26T11:17:49.961Z,99523.09
2022-09-26T11:20:39.561Z,99521.25
2022-09-26T11:23:43.554Z,99525.06
2022-09-26T11:26:23.779Z,99517.53
2022-09-26T11:28:53.761Z,99525.88
2022-09-26T11:31:40.926Z,99513.13
2022-09-26T11:34:13.605Z,99512.34
2022-09-26T11:36:55.217Z,99513.03
2022-09-26T11:39:50.475Z,99503.75
2022-09-26T11:42:44.751Z,99504.44
2022-09-26T11:45:37.730Z,99504.22
2022-09-26T11:48:28.228Z,99504.06
2022-09-26T11:51:22.083Z,99497.47
2022-09-26T11:54:00.834Z,99498.41
2022-09-26T11:56:40.085Z,99493.31
2022-09-26T11:59:45.451Z,99482.91
2022-09-26T12:02:39.942Z,99486.84
2022-09-26T12:05:27.399Z,99484.50
2022-09-26T12:08:21.612Z,99482.66
2022-09-26T12:11:09.779Z,99485.09
2022-09-26T12:13:59.243Z,99483.25
2022-09-26T12:16:27.553Z,99476.44
2022-09-26T12:19:15.570Z,99466.78
2022-09-26T12:22:30.227Z,99469.81
2022-09-26T12:25:07.257Z,99458.22
2022-09-26T12:27:51.754Z,99459.88
2022-09-26T12:30:25.375Z,99462.75
2022-09-26T12:32:51.763Z,99467.84
2022-09-26T12:35:43.906Z,99456.03
2022-09-26T12:38:21.121Z,99458.69
2022-09-26T12:41:20.959Z,99452.47
2022-09-26T12:44:22.990Z,99456.16
2022-09-26T12:47:11.733Z,99460.66
2022-09-26T12:50:11.967Z,99456.72
2022-09-26T12:52:50.238Z,99449.78
2022-09-26T12:55:20.231Z,99454.06
2022-09-26T12:58:08.216Z,99441.00
2022-09-26T13:00:45.487Z,99444.78
2022-09-26T13:03:23.808Z,99440.53
2022-09-26T13:05:59.539Z,99444.47
2022-09-26T13:08:47.864Z,99440.53
2022-09-26T13:11:42.536Z,99429.88
2022-09-26T13:14:57.306Z,99429.41
2022-09-26T13:17:36.605Z,99418.41
2022-09-26T13:20:29.724Z,99419.22
2022-09-26T13:23:02.277Z,99426.28
2022-09-26T13:25:35.522Z,99423.25
2022-09-26T13:28:07.020Z,99416.09
2022-09-26T13:30:38.016Z,99415.03
2022-09-26T13:33:20.795Z,99405.78
2022-09-26T13:35:59.292Z,99409.50
2022-09-26T13:38:45.826Z,99397.91
2022-09-26T13:41:43.466Z,99397.69
2022-09-26T13:44:22.882Z,99397.56
2022-09-26T13:47:03.273Z,99385.84
2022-09-26T13:49:51.251Z,99389.56
2022-09-26T13:52:44.528Z,99389.00
2022-09-26T13:55:14.984Z,99383.66
2022-09-26T13:57:50.229Z,99381.00
2022-09-26T14:00:24.412Z,99379.53
2022-09-26T14:03:18.940Z,99374.03
2022-09-26T14:05:49.874Z,99369.78
2022-09-26T14:08:44.538Z,99361.00
2022-09-26T14:11:27.597Z,99367.59
2022-09-26T14:14:18.270Z,99364.94
2022-09-26T14:16:49.658Z,99355.31
2022-09-26T14:19:30.102Z,99352.06
2022-09-26T14:22:05.568Z,99349.53
2022-09-26T14:24:37.232Z,99349.06
2022-09-26T14:27:11.002Z,99342.25
2022-09-26T14:29:40.326Z,99337.72
2022-09-26T14:32:12.319Z,99332.50
2022-09-26T14:34:59.386Z,99330.31
2022-09-26T14:37:39.371Z,99329.25
2022-09-26T14:40:23.039Z,99325.56
2022-09-26T14:42:52.413Z,99326.72
2022-09-26T14:45:18.759Z,99322.78
2022-09-26T14:47:48.963Z,99319.88
2022-09-26T14:50:21.428Z,99311.31
2022-09-26T14:52:52.309Z,99313.66
2022-09-26T14:55:19.216Z,99307.06
2022-09-26T14:57:46.518Z,99302.53
2022-09-26T15:00:36.117Z,99293.88
2022-09-26T15:03:07.278Z,99289.72
2022-09-26T15:05:33.907Z,99286.69
2022-09-26T15:08:01.090Z,99279.41
2022-09-26T15:10:40.045Z,99279.31
2022-09-26T15:13:42.702Z,99275.38
2022-09-26T15:16:23.725Z,99274.47
2022-09-26T15:18:56.453Z,99265.22
2022-09-26T15:21:42.976Z,99263.22
2022-09-26T15:24:27.907Z,99257.13
2022-09-26T15:27:19.182Z,99254.69
2022-09-26T15:29:51.574Z,99252.81
2022-09-26T15:32:28.962Z,99247.75
2022-09-26T15:34:56.323Z,99241.63
2022-09-26T15:37:25.263Z,99242.06
2022-09-26T15:39:52.738Z,99240.22
2022-09-26T15:42:48.291Z,99235.94
2022-09-26T15:45:23.308Z,99237.56
2022-09-26T15:47:49.859Z,99238.38
2022-09-26T15:50:23.301Z,99227.50
2022-09-26T15:52:56.727Z,99232.69
2022-09-26T15:55:28.323Z,99224.72
2022-09-26T15:57:58.517Z,99224.72
2022-09-26T16:00:25.161Z,99222.88
2022-09-26T16:02:54.943Z,99222.75
2022-09-26T16:05:21.785Z,99215.59
2022-09-26T16:07:50.606Z,99211.53
2022-09-26T16:10:37.215Z,99212.59
2022-09-26T16:13:03.716Z,99213.41
2022-09-26T16:15:30.658Z,99199.19
2022-09-26T16:17:58.269Z,99196.53
2022-09-26T16:20:30.984Z,99200.31
2022-09-26T16:23:05.384Z,99193.50
2022-09-26T16:25:32.364Z,99192.34
2022-09-26T16:28:08.765Z,99184.84
2022-09-26T16:30:41.591Z,99184.72
2022-09-26T16:33:08.067Z,99183.47
2022-09-26T16:35:36.519Z,99187.16
2022-09-26T16:38:16.527Z,99181.72
2022-09-26T16:40:50.414Z,99179.63
2022-09-26T16:43:24.036Z,99184.94
2022-09-26T16:46:09.058Z,99177.44
2022-09-26T16:48:43.794Z,99180.09
2022-09-26T16:51:27.139Z,99174.09
2022-09-26T16:54:20.195Z,99174.91
2022-09-26T16:56:51.448Z,99170.25
2022-09-26T16:59:20.949Z,99171.91
2022-09-26T17:01:56.364Z,99165.84
2022-09-26T17:04:31.339Z,99161.81
2022-09-26T17:07:06.287Z,99162.75
2022-09-26T17:09:35.448Z,99163.34
2022-09-26T17:12:08.328Z,99156.38
2022-09-26T17:14:40.561Z,99159.63
2022-09-26T17:17:12.124Z,99152.94
2022-09-26T17:19:40.218Z,99154.41
2022-09-26T17:22:13.493Z,99158.94
2022-09-26T17:24:40.081Z,99152.56
2022-09-26T17:27:08.010Z,99155.56
2022-09-26T17:29:40.402Z,99153.63
2022-09-26T17:32:12.273Z,99150.84
2022-09-26T17:34:38.811Z,99137.19
2022-09-26T17:37:05.291Z,99155.34
2022-09-26T17:39:31.726Z,99146.91
2022-09-26T17:41:59.087Z,99151.41
2022-09-26T17:44:25.613Z,99146.88
2022-09-26T17:46:56.436Z,99142.75
2022-09-26T17:49:28.055Z,99147.00
2022-09-26T17:51:57.193Z,99132.22
2022-09-26T17:54:44.308Z,99141.78
2022-09-26T17:57:14.415Z,99141.78
2022-09-26T17:59:42.128Z,99134.41
2022-09-26T18:02:33.895Z,99133.13
2022-09-26T18:05:03.950Z,99133.47
2022-09-26T18:07:37.052Z,99124.91
2022-09-26T18:10:07.163Z,99140.75
2022-09-26T18:12:34.750Z,99132.50
2022-09-26T18:15:05.917Z,99130.91
2022-09-26T18:17:32.445Z,99133.19
2022-09-26T18:19:58.974Z,99122.66
2022-09-26T18:22:28.045Z,99126.16
2022-09-26T18:25:00.903Z,99127.19
2022-09-26T18:27:27.353Z,99123.69
2022-09-26T18:29:54.827Z,99127.16
2022-09-26T18:32:25.913Z,99126.34
2022-09-26T18:34:52.701Z,99122.09
2022-09-26T18:37:19.217Z,99120.31
2022-09-26T18:39:46.503Z,99125.88
2022-09-26T18:42:18.151Z,99130.38
2022-09-26T18:44:44.909Z,99135.94
2022-09-26T18:47:16.049Z,99116.28
2022-09-26T18:49:45.093Z,99119.16
2022-09-26T18:52:15.195Z,99115.22
2022-09-26T18:54:44.565Z,99117.56
2022-09-26T18:57:30.607Z,99113.63
2022-09-26T18:59:59.131Z,99117.56
2022-09-26T19:02:35.687Z,99113.03
2022-09-26T19:05:03.097Z,99117.31
2022-09-26T19:07:32.330Z,99122.75
2022-09-26T19:09:59.058Z,99121.13
2022-09-26T19:12:25.688Z,99121.03
2022-09-26T19:14:52.151Z,99121.84
2022-09-26T19:17:18.602Z,99127.41
2022-09-26T19:19:45.045Z,99135.13
2022-09-26T19:22:16.745Z,99124.25
2022-09-26T19:24:47.314Z,99124.84
2022-09-26T19:27:20.508Z,99130.16
2022-09-26T19:29:59.200Z,99136.78
2022-09-26T19:32:46.611Z,99143.69
2022-09-26T19:35:42.760Z,99138.06
2022-09-26T19:38:17.759Z,99135.06
2022-09-26T19:40:48.627Z,99143.88
2022-09-26T19:43:15.680Z,99144.56
2022-09-26T19:45:43.273Z,99137.88
2022-09-26T19:48:15.423Z,99135.69
2022-09-26T19:50:43.677Z,99137.78
2022-09-26T19:53:14.066Z,99131.78
2022-09-26T19:55:40.565Z,99134.09
2022-09-26T19:58:21.795Z,99130.06
2022-09-26T20:00:56.768Z,99123.09
2022-09-26T20:03:29.772Z,99123.94
2022-09-26T20:05:56.243Z,99118.25
2022-09-26T20:08:25.391Z,99125.78
2022-09-26T20:10:53.047Z,99127.28
2022-09-26T20:13:19.565Z,99123.34
2022-09-26T20:15:46.154Z,99118.03
2022-09-26T20:18:23.153Z,99116.66
2022-09-26T20:20:52.250Z,99109.22
2022-09-26T20:23:21.977Z,99114.09
2022-09-26T20:25:48.783Z,99109.56
2022-09-26T20:28:18.105Z,99119.72
2022-09-26T20:30:55.346Z,99112.13
2022-09-26T20:33:23.111Z,99113.59
2022-09-26T20:35:53.805Z,99108.28
2022-09-26T20:38:33.616Z,99104.56
2022-09-26T20:41:13.319Z,99104.47
2022-09-26T20:43:40.264Z,99111.50
2022-09-26T20:46:08.687Z,99105.50
2022-09-26T20:48:36.006Z,99101.47
2022-09-26T20:51:04.427Z,99106.91
2022-09-26T20:53:30.903Z,99103.75
2022-09-26T20:55:57.501Z,99105.81
2022-09-26T20:58:24.063Z,99098.88
2022-09-26T21:00:53.138Z,99097.91
2022-09-26T21:03:21.911Z,99106.38
2022-09-26T21:05:48.388Z,99102.34
2022-09-26T21:08:35.010Z,99094.72
2022-09-26T21:11:01.788Z,99087.19
2022-09-26T21:13:28.279Z,99085.41
2022-09-26T21:15:54.728Z,99084.88
2022-09-26T21:18:24.112Z,99089.28
2022-09-26T21:20:51.443Z,99085.00
2022-09-26T21:23:18.946Z,99094.59
2022-09-26T21:25:45.395Z,99095.25
2022-09-26T21:28:22.731Z,99094.47
2022-09-26T21:30:49.781Z,99094.56
2022-09-26T21:33:16.423Z,99089.56
2022-09-26T21:35:42.887Z,99089.78
2022-09-26T21:38:09.520Z,99088.88
2022-09-26T21:40:38.953Z,99088.72
2022-09-26T21:43:12.826Z,99095.66
2022-09-26T21:45:41.979Z,99085.03
2022-09-26T21:48:08.495Z,99088.88
2022-09-26T21:50:36.371Z,99086.00
2022-09-26T21:53:06.951Z,99085.19
2022-09-26T21:55:37.200Z,99090.97
2022-09-26T21:58:08.076Z,99080.81
2022-09-26T22:00:34.679Z,99085.84
2022-09-26T22:03:01.424Z,99074.41
2022-09-26T22:05:28.315Z,99083.09
2022-09-26T22:07:55.843Z,99079.25
2022-09-26T22:10:22.362Z,99081.31
2022-09-26T22:12:51.184Z,99078.34
2022-09-26T22:15:18.183Z,99079.13
2022-09-26T22:17:44.681Z,99074.44
2022-09-26T22:20:11.639Z,99078.00
2022-09-26T22:22:38.253Z,99074.09
2022-09-26T22:25:09.273Z,99073.41
2022-09-26T22:27:36.211Z,99070.84
2022-09-26T22:30:03.590Z,99062.78
2022-09-26T22:32:30.068Z,99080.69
2022-09-26T22:34:56.657Z,99077.09
2022-09-26T22:37:23.329Z,99069.81
2022-09-26T22:39:50.912Z,99061.97
2022-09-26T22:42:17.424Z,99064.41
2022-09-26T22:44:44.108Z,99060.03
2022-09-26T22:47:10.664Z,99066.16
2022-09-26T22:49:37.370Z,99063.03
2022-09-26T22:52:04.108Z,99064.78
2022-09-26T22:54:30.628Z,99065.94
2022-09-26T22:56:57.081Z,99065.13
2022-09-26T22:59:23.553Z,99063.13
2022-09-26T23:01:51.671Z,99057.97
2022-09-26T23:04:18.500Z,99051.50
2022-09-26T23:06:44.967Z,99056.00
2022-09-26T23:09:11.407Z,99050.31
2022-09-26T23:11:37.850Z,99054.63
2022-09-26T23:14:04.328Z,99057.16
2022-09-26T23:16:30.860Z,99060.03
2022-09-26T23:18:57.704Z,99060.00
2022-09-26T23:21:26.614Z,99068.06
2022-09-26T23:23:57.235Z,99070.00
2022-09-26T23:26:26.233Z,99068.63
2022-09-26T23:28:53.900Z,99072.22
2022-09-26T23:31:21.249Z,99055.47
2022-09-26T23:33:47.726Z,99064.72
2022-09-26T23:36:14.200Z,99061.84
2022-09-26T23:38:41.171Z,99056.06
2022-09-26T23:41:09.855Z,99059.09
2022-09-26T23:43:36.655Z,99048.56
2022-09-26T23:46:03.133Z,99050.97
2022-09-26T23:48:29.746Z,99053.75
2022-09-26T23:50:56.466Z,99056.16
2022-09-26T23:53:22.936Z,99055.59
2022-09-26T23:55:49.472Z,99050.16
2022-09-26T23:58:16.129Z,99054.34
